Time;durP1;ratioP1;P1;durP2;ratioP2;P2;SDS_P1;SDS_P2;PMS_P1;PMS_P2;Temp;Humidity;BMP_temperature;BMP_pressure;BME280_temperature;BME280_humidity;BME280_pressure;Samples;Min_cycle;Max_cycle;Signal;HPM_P1;HPM_P2
2023/06/11 00:01:40;;;;;;;10.27;5.80;;;20.20;99.90;;;;;;5091814;28;20052;-65
2023/06/11 00:04:06;;;;;;;10.75;5.63;;;20.20;99.90;;;;;;5092050;28;20223;-65
2023/06/11 00:06:32;;;;;;;9.68;5.38;;;20.20;99.90;;;;;;5090137;28;20063;-64
2023/06/11 00:08:58;;;;;;;8.23;5.10;;;20.10;99.90;;;;;;5091651;28;20107;-64
2023/06/11 00:11:25;;;;;;;13.52;6.22;;;20.10;99.90;;;;;;5091722;28;20056;-65
2023/06/11 00:13:53;;;;;;;11.05;5.90;;;20.10;99.90;;;;;;5091726;28;20052;-65
2023/06/11 00:16:20;;;;;;;10.68;5.72;;;20.10;99.90;;;;;;5091045;28;20052;-64
2023/06/11 00:18:46;;;;;;;8.43;5.68;;;20.00;99.90;;;;;;5091620;28;20069;-65
2023/06/11 00:21:14;;;;;;;9.20;5.53;;;20.00;99.90;;;;;;5091487;28;20074;-64
2023/06/11 00:23:40;;;;;;;7.40;5.65;;;20.00;99.90;;;;;;5091657;28;20071;-64
2023/06/11 00:26:07;;;;;;;8.50;5.63;;;20.00;99.90;;;;;;5091396;28;20051;-64
2023/06/11 00:28:34;;;;;;;9.35;5.95;;;19.90;99.90;;;;;;5091494;28;20044;-64
2023/06/11 00:31:03;;;;;;;9.73;5.60;;;20.00;99.90;;;;;;5091267;28;20170;-64
2023/06/11 00:33:29;;;;;;;8.55;5.32;;;19.90;99.90;;;;;;5091510;28;20449;-65
2023/06/11 00:35:56;;;;;;;8.68;5.78;;;19.90;99.90;;;;;;5090536;28;20544;-64
2023/06/11 00:38:23;;;;;;;10.77;6.38;;;19.90;99.90;;;;;;5091391;28;20073;-64
2023/06/11 00:40:49;;;;;;;9.65;6.00;;;19.90;99.90;;;;;;5091411;28;20055;-65
2023/06/11 00:43:17;;;;;;;8.95;5.47;;;19.90;99.90;;;;;;5091563;28;20043;-65
2023/06/11 00:45:44;;;;;;;11.05;5.72;;;19.90;99.90;;;;;;5091309;28;20436;-64
2023/06/11 00:48:10;;;;;;;8.57;5.82;;;19.80;99.90;;;;;;5092694;28;20048;-65
2023/06/11 00:50:44;;;;;;;7.88;5.68;;;19.80;99.90;;;;;;5094926;28;20048;-64
2023/06/11 00:53:12;;;;;;;8.30;5.15;;;19.80;99.90;;;;;;5095025;28;20047;-65
2023/06/11 00:55:39;;;;;;;9.82;5.68;;;19.70;99.90;;;;;;5094757;28;20051;-64
2023/06/11 00:58:13;;;;;;;8.48;6.20;;;19.70;99.90;;;;;;5094656;28;20052;-65
2023/06/11 01:00:42;;;;;;;12.90;6.53;;;19.70;99.90;;;;;;5094500;28;20040;-64
2023/06/11 01:03:12;;;;;;;8.68;6.60;;;19.70;99.90;;;;;;5094774;28;20047;-64
2023/06/11 01:05:44;;;;;;;11.07;7.22;;;19.70;99.90;;;;;;5094162;28;20048;-64
2023/06/11 01:08:13;;;;;;;9.32;7.05;;;19.70;99.90;;;;;;5094502;28;20052;-64
2023/06/11 01:10:40;;;;;;;8.38;7.20;;;19.70;99.90;;;;;;5094597;28;20044;-65
2023/06/11 01:13:06;;;;;;;11.40;7.50;;;19.70;99.90;;;;;;5094598;28;20048;-63
2023/06/11 01:15:32;;;;;;;8.55;6.80;;;19.70;99.90;;;;;;5094072;28;20059;-65
2023/06/11 01:18:11;;;;;;;10.02;7.80;;;19.70;99.90;;;;;;5094294;28;20109;-65
2023/06/11 01:20:55;;;;;;;12.63;8.35;;;19.70;99.90;;;;;;5094244;28;20106;-64
2023/06/11 01:23:40;;;;;;;13.68;8.07;;;19.70;99.90;;;;;;5094511;28;20059;-64
2023/06/11 01:26:24;;;;;;;11.13;8.90;;;19.70;99.90;;;;;;5093966;28;20548;-64
2023/06/11 01:28:57;;;;;;;9.60;8.32;;;19.70;99.90;;;;;;5094100;28;20051;-65
2023/06/11 01:31:25;;;;;;;11.60;9.35;;;19.70;99.90;;;;;;5094000;28;20056;-64
2023/06/11 01:33:53;;;;;;;10.52;9.10;;;19.70;99.90;;;;;;5094421;28;20040;-64
2023/06/11 01:36:19;;;;;;;10.68;8.95;;;19.70;99.90;;;;;;5093840;28;20054;-63
2023/06/11 01:38:46;;;;;;;12.68;9.82;;;19.70;99.90;;;;;;5094012;28;20060;-63
2023/06/11 01:41:12;;;;;;;10.52;9.48;;;19.70;99.90;;;;;;5094183;28;20437;-64
2023/06/11 01:43:38;;;;;;;11.90;9.90;;;19.70;99.90;;;;;;5093701;28;20473;-65
2023/06/11 01:46:05;;;;;;;10.73;9.68;;;19.60;99.90;;;;;;5093449;28;20047;-63
2023/06/11 01:48:32;;;;;;;10.68;9.48;;;19.60;99.90;;;;;;5093307;28;20465;-64
2023/06/11 01:50:59;;;;;;;10.95;9.80;;;19.60;99.90;;;;;;5093654;28;20277;-63
2023/06/11 01:53:25;;;;;;;10.57;9.27;;;19.60;99.90;;;;;;5093879;28;20117;-61
2023/06/11 01:55:52;;;;;;;12.65;10.35;;;19.60;99.90;;;;;;5093476;28;20056;-62
2023/06/11 01:58:18;;;;;;;12.18;9.75;;;19.60;99.90;;;;;;5093345;28;20165;-63
2023/06/11 02:00:47;;;;;;;11.32;9.90;;;19.40;99.90;;;;;;5093729;28;20049;-63
2023/06/11 02:03:15;;;;;;;13.18;10.20;;;19.60;99.90;;;;;;5094062;28;20059;-63
2023/06/11 02:05:43;;;;;;;11.27;10.05;;;19.50;99.90;;;;;;5092919;28;20044;-62
2023/06/11 02:08:10;;;;;;;11.80;10.40;;;19.50;99.90;;;;;;5093298;28;20036;-63
2023/06/11 02:10:36;;;;;;;11.48;10.13;;;19.50;99.90;;;;;;5093729;28;20113;-63
2023/06/11 02:13:02;;;;;;;11.18;9.98;;;19.40;99.90;;;;;;5093576;28;20044;-63
2023/06/11 02:15:28;;;;;;;11.00;9.85;;;19.40;99.90;;;;;;5092995;28;20048;-63
2023/06/11 02:17:55;;;;;;;10.63;9.45;;;19.40;99.90;;;;;;5093028;28;20371;-62
2023/06/11 02:20:21;;;;;;;11.27;10.02;;;19.40;99.90;;;;;;5093148;28;20050;-63
2023/06/11 02:22:47;;;;;;;10.82;9.82;;;19.30;99.90;;;;;;5093506;28;20050;-64
2023/06/11 02:25:14;;;;;;;10.93;9.82;;;19.40;99.90;;;;;;5093231;28;20058;-63
2023/06/11 02:27:40;;;;;;;10.65;9.55;;;19.30;99.90;;;;;;5092975;28;20447;-64
2023/06/11 02:30:07;;;;;;;13.10;10.27;;;19.30;99.90;;;;;;5093107;28;20341;-64
2023/06/11 02:32:33;;;;;;;11.88;10.27;;;19.30;99.90;;;;;;5093229;28;20056;-63
2023/06/11 02:35:00;;;;;;;10.95;9.88;;;19.30;99.90;;;;;;5092733;28;20048;-62
2023/06/11 02:37:26;;;;;;;11.65;10.25;;;19.30;99.90;;;;;;5092861;28;20117;-63
2023/06/11 02:39:52;;;;;;;10.73;9.50;;;19.30;99.90;;;;;;5093389;28;20055;-63
2023/06/11 02:42:18;;;;;;;11.23;10.02;;;19.20;99.90;;;;;;5093550;28;20048;-63
2023/06/11 02:44:44;;;;;;;10.63;9.52;;;19.20;99.90;;;;;;5092960;28;20059;-63
2023/06/11 02:47:11;;;;;;;11.70;10.50;;;19.20;99.90;;;;;;5093177;28;20350;-63
2023/06/11 02:49:37;;;;;;;10.88;9.48;;;19.20;99.90;;;;;;5092631;28;20873;-63
2023/06/11 02:52:04;;;;;;;11.98;10.27;;;19.20;99.90;;;;;;5093122;28;20063;-62
2023/06/11 02:54:30;;;;;;;10.77;9.70;;;19.20;99.90;;;;;;5092660;28;20052;-64
2023/06/11 02:56:57;;;;;;;11.18;10.05;;;19.20;99.90;;;;;;5093088;28;20094;-62
2023/06/11 02:59:23;;;;;;;11.43;10.23;;;19.00;99.90;;;;;;5092577;28;20063;-62
2023/06/11 03:01:49;;;;;;;11.30;9.45;;;19.10;99.90;;;;;;5093175;28;20048;-63
2023/06/11 03:04:15;;;;;;;10.90;9.82;;;19.10;99.90;;;;;;5093144;28;20104;-64
2023/06/11 03:06:42;;;;;;;10.63;9.52;;;19.10;99.90;;;;;;5092354;28;20058;-63
2023/06/11 03:09:08;;;;;;;10.73;9.57;;;19.10;99.90;;;;;;5092814;28;20048;-62
2023/06/11 03:11:34;;;;;;;10.82;9.77;;;19.00;99.90;;;;;;5092242;28;20197;-63
2023/06/11 03:14:00;;;;;;;10.45;9.45;;;19.00;99.90;;;;;;5092705;28;20048;-63
2023/06/11 03:16:26;;;;;;;11.00;9.90;;;19.00;99.90;;;;;;5092356;28;20150;-64
2023/06/11 03:18:53;;;;;;;10.82;9.32;;;19.00;99.90;;;;;;5092376;28;20044;-64
2023/06/11 03:21:19;;;;;;;10.32;9.32;;;19.00;99.90;;;;;;5092190;28;20055;-64
2023/06/11 03:23:45;;;;;;;10.77;9.68;;;19.00;99.90;;;;;;5092773;28;20048;-62
2023/06/11 03:26:12;;;;;;;11.38;9.90;;;18.90;99.90;;;;;;5092130;28;20036;-63
2023/06/11 03:28:38;;;;;;;11.10;9.85;;;18.90;99.90;;;;;;5092075;28;20357;-63
2023/06/11 03:31:04;;;;;;;11.05;9.95;;;18.90;99.90;;;;;;5091903;28;20252;-62
2023/06/11 03:33:31;;;;;;;11.32;10.02;;;18.90;99.90;;;;;;5092178;28;20062;-63
2023/06/11 03:35:57;;;;;;;11.02;9.82;;;18.90;99.90;;;;;;5091941;28;20039;-63
2023/06/11 03:38:23;;;;;;;11.82;10.02;;;18.90;99.90;;;;;;5091863;28;20059;-63
2023/06/11 03:40:49;;;;;;;11.73;10.63;;;18.90;99.90;;;;;;5092164;28;20040;-64
2023/06/11 03:43:16;;;;;;;13.63;10.77;;;18.90;99.90;;;;;;5092477;28;20047;-64
2023/06/11 03:45:42;;;;;;;10.80;9.80;;;18.90;99.90;;;;;;5091425;28;20475;-64
2023/06/11 03:48:08;;;;;;;12.00;10.80;;;18.90;99.90;;;;;;5091940;28;20479;-63
2023/06/11 03:50:34;;;;;;;11.30;10.00;;;18.90;99.90;;;;;;5091906;28;20364;-62
2023/06/11 03:53:01;;;;;;;12.13;10.95;;;18.90;99.90;;;;;;5092144;28;20074;-63
2023/06/11 03:55:27;;;;;;;12.07;10.80;;;18.90;99.90;;;;;;5091797;28;20059;-63
2023/06/11 03:57:53;;;;;;;11.40;10.20;;;18.90;99.90;;;;;;5091451;28;20438;-63
2023/06/11 04:00:20;;;;;;;11.20;9.95;;;18.90;99.90;;;;;;5092029;28;20039;-62
2023/06/11 04:02:46;;;;;;;11.30;10.20;;;18.90;99.90;;;;;;5092393;28;20105;-63
2023/06/11 04:05:13;;;;;;;12.27;10.45;;;18.90;99.90;;;;;;5091863;28;20052;-64
2023/06/11 04:07:40;;;;;;;11.90;10.73;;;18.90;99.90;;;;;;5091958;28;20047;-63
2023/06/11 04:10:09;;;;;;;12.10;10.73;;;19.00;99.90;;;;;;5092083;28;20059;-63
2023/06/11 04:12:35;;;;;;;11.60;10.50;;;18.90;99.90;;;;;;5091957;28;20059;-63
2023/06/11 04:15:02;;;;;;;12.02;10.70;;;19.00;99.90;;;;;;5091858;28;20048;-62
2023/06/11 04:17:28;;;;;;;11.35;10.15;;;18.90;99.90;;;;;;5091567;28;20541;-62
2023/06/11 04:19:54;;;;;;;11.82;10.65;;;18.90;99.90;;;;;;5091207;28;20498;-63
2023/06/11 04:22:21;;;;;;;12.20;10.80;;;19.00;99.90;;;;;;5094074;28;20048;-64
2023/06/11 04:24:47;;;;;;;11.73;10.52;;;19.00;99.90;;;;;;5095484;28;20362;-64
2023/06/11 04:27:14;;;;;;;11.73;10.50;;;19.00;99.90;;;;;;5095708;28;20058;-63
2023/06/11 04:29:40;;;;;;;13.75;10.70;;;19.00;99.90;;;;;;5095303;28;20044;-62
2023/06/11 04:32:07;;;;;;;12.25;11.10;;;19.00;99.90;;;;;;5095868;28;20044;-63
2023/06/11 04:34:35;;;;;;;13.23;10.50;;;19.00;99.90;;;;;;5094828;28;20504;-65
2023/06/11 04:37:01;;;;;;;12.20;10.85;;;19.10;99.90;;;;;;5095833;28;20105;-63
2023/06/11 04:39:27;;;;;;;12.05;10.75;;;19.10;99.90;;;;;;5095666;28;20051;-63
2023/06/11 04:41:54;;;;;;;11.57;10.27;;;19.10;99.90;;;;;;5095454;28;20066;-63
2023/06/11 04:44:20;;;;;;;12.07;10.80;;;19.20;99.90;;;;;;5095393;28;20048;-64
2023/06/11 04:46:57;;;;;;;11.27;9.98;;;19.20;99.90;;;;;;5095525;28;20048;-63
2023/06/11 04:49:23;;;;;;;11.65;10.32;;;19.20;99.90;;;;;;5094992;28;20055;-65
2023/06/11 04:51:52;;;;;;;11.75;10.55;;;19.30;99.90;;;;;;5095333;28;20513;-63
2023/06/11 04:54:21;;;;;;;12.20;10.40;;;19.60;99.90;;;;;;5095213;28;20056;-64
2023/06/11 04:56:48;;;;;;;12.05;10.10;;;20.40;99.90;;;;;;5095417;28;20055;-64
2023/06/11 04:59:14;;;;;;;11.25;9.98;;;21.60;99.90;;;;;;5095415;28;20044;-63
2023/06/11 05:01:48;;;;;;;12.15;10.95;;;22.50;99.90;;;;;;5095020;28;20208;-64
2023/06/11 05:04:14;;;;;;;14.40;10.05;;;23.10;99.90;;;;;;5094262;28;20054;-64
2023/06/11 05:06:47;;;;;;;11.55;10.35;;;23.70;99.90;;;;;;5095135;28;20055;-65
2023/06/11 05:09:13;;;;;;;11.50;10.48;;;24.00;99.90;;;;;;5094769;28;20449;-63
2023/06/11 05:11:44;;;;;;;10.95;9.95;;;24.40;99.90;;;;;;5094397;28;20062;-63
2023/06/11 05:14:11;;;;;;;11.70;10.13;;;24.70;99.90;;;;;;5094631;28;20075;-64
2023/06/11 05:16:38;;;;;;;11.23;10.13;;;25.00;99.10;;;;;;5094305;28;20149;-63
2023/06/11 05:19:05;;;;;;;10.95;9.85;;;25.30;99.30;;;;;;5094169;28;20105;-63
2023/06/11 05:21:32;;;;;;;11.50;10.40;;;25.60;98.80;;;;;;5094049;28;20144;-63
2023/06/11 05:24:06;;;;;;;12.00;10.30;;;26.00;98.50;;;;;;5094462;28;20048;-64
2023/06/11 05:26:36;;;;;;;11.32;10.23;;;26.20;98.10;;;;;;5093751;28;20062;-63
2023/06/11 05:29:03;;;;;;;11.07;9.52;;;26.40;97.70;;;;;;5093897;28;20048;-65
2023/06/11 05:31:29;;;;;;;11.27;10.27;;;26.50;97.60;;;;;;5093700;28;20059;-64
2023/06/11 05:33:56;;;;;;;11.13;10.05;;;26.60;96.90;;;;;;5093451;28;20066;-63
2023/06/11 05:36:22;;;;;;;11.10;9.90;;;26.90;97.20;;;;;;5093426;28;20135;-63
2023/06/11 05:38:51;;;;;;;10.43;9.43;;;26.80;96.80;;;;;;5093786;28;20071;-63
2023/06/11 05:41:18;;;;;;;10.75;9.70;;;27.20;96.70;;;;;;5093837;28;20056;-64
2023/06/11 05:43:45;;;;;;;10.98;9.90;;;27.20;96.60;;;;;;5093100;28;20413;-63
2023/06/11 05:46:12;;;;;;;11.10;10.00;;;27.60;96.70;;;;;;5093562;28;20070;-63
2023/06/11 05:48:40;;;;;;;10.77;9.65;;;27.60;96.20;;;;;;5093622;28;20044;-64
2023/06/11 05:51:07;;;;;;;10.38;9.35;;;27.50;95.80;;;;;;5092399;28;20497;-63
2023/06/11 05:53:33;;;;;;;11.65;9.95;;;27.90;95.30;;;;;;5093582;28;20278;-63
2023/06/11 05:56:03;;;;;;;10.40;9.50;;;28.00;95.40;;;;;;5093277;28;20051;-62
2023/06/11 05:58:33;;;;;;;11.02;9.82;;;27.80;95.30;;;;;;5093460;28;20069;-63
2023/06/11 06:01:04;;;;;;;11.15;10.05;;;27.70;94.90;;;;;;5093451;28;20048;-64
2023/06/11 06:03:31;;;;;;;11.18;9.95;;;27.70;95.20;;;;;;5093533;28;20456;-63
2023/06/11 06:06:01;;;;;;;12.43;9.50;;;27.80;95.10;;;;;;5092889;28;20112;-63
2023/06/11 06:08:28;;;;;;;10.43;9.40;;;27.80;94.90;;;;;;5092877;28;20364;-64
2023/06/11 06:10:55;;;;;;;10.02;9.02;;;28.40;94.90;;;;;;5092312;28;20052;-64
2023/06/11 06:13:23;;;;;;;10.65;9.65;;;28.20;94.60;;;;;;5093237;28;20445;-64
2023/06/11 06:15:49;;;;;;;10.63;9.57;;;28.10;94.60;;;;;;5092994;28;20101;-63
2023/06/11 06:18:15;;;;;;;10.35;9.45;;;28.20;94.30;;;;;;5093005;28;20044;-64
2023/06/11 06:20:42;;;;;;;11.98;9.63;;;28.40;94.20;;;;;;5093193;28;20097;-63
2023/06/11 06:23:09;;;;;;;11.20;8.77;;;28.40;94.30;;;;;;5093469;28;20066;-65
2023/06/11 06:25:37;;;;;;;10.90;9.88;;;28.50;94.20;;;;;;5092609;28;20051;-64
2023/06/11 06:28:07;;;;;;;10.43;9.52;;;28.40;94.20;;;;;;5092908;28;20097;-64
2023/06/11 06:30:33;;;;;;;10.60;9.68;;;28.60;94.00;;;;;;5092704;28;20083;-64
2023/06/11 06:33:00;;;;;;;10.73;9.75;;;29.00;93.90;;;;;;5093016;28;20044;-63
2023/06/11 06:35:26;;;;;;;10.48;9.43;;;28.70;93.70;;;;;;5092323;28;20105;-63
2023/06/11 06:37:52;;;;;;;10.15;9.13;;;28.60;93.80;;;;;;5092656;28;20052;-63
2023/06/11 06:40:19;;;;;;;10.52;9.40;;;28.40;94.10;;;;;;5092894;28;20415;-63
2023/06/11 06:42:45;;;;;;;11.05;9.93;;;28.60;93.90;;;;;;5092023;28;20633;-63
2023/06/11 06:45:11;;;;;;;10.88;9.88;;;28.80;93.90;;;;;;5091474;28;20063;-63
2023/06/11 06:47:37;;;;;;;11.02;9.95;;;29.10;93.50;;;;;;5092389;28;20052;-63
2023/06/11 06:50:04;;;;;;;10.60;9.65;;;28.90;93.60;;;;;;5092472;28;20086;-63
2023/06/11 06:52:30;;;;;;;11.63;10.30;;;28.80;93.60;;;;;;5092605;28;20489;-64
2023/06/11 06:54:56;;;;;;;11.10;10.00;;;28.70;93.60;;;;;;5092146;28;20143;-63
2023/06/11 06:57:23;;;;;;;10.70;9.65;;;28.90;93.70;;;;;;5092285;28;20040;-64
2023/06/11 06:59:49;;;;;;;10.27;9.10;;;28.50;93.90;;;;;;5088790;28;20114;-63
2023/06/11 07:02:15;;;;;;;10.65;9.65;;;27.90;94.20;;;;;;5082800;28;20101;-64
2023/06/11 07:04:42;;;;;;;10.23;9.32;;;27.60;94.60;;;;;;5080891;28;20443;-62
2023/06/11 07:07:08;;;;;;;10.18;9.38;;;27.40;94.80;;;;;;5080938;28;20118;-63
2023/06/11 07:09:35;;;;;;;9.80;8.90;;;27.30;95.10;;;;;;5082417;28;20269;-63
2023/06/11 07:12:01;;;;;;;9.55;8.68;;;27.20;95.20;;;;;;5082082;28;20109;-62
2023/06/11 07:14:27;;;;;;;9.48;8.57;;;27.30;95.30;;;;;;5081408;28;20109;-63
2023/06/11 07:16:53;;;;;;;10.10;9.10;;;27.40;95.40;;;;;;5082067;28;20471;-63
2023/06/11 07:19:19;;;;;;;10.38;8.75;;;27.50;95.30;;;;;;5081289;28;20080;-64
2023/06/11 07:21:46;;;;;;;9.98;9.10;;;27.50;95.20;;;;;;5078166;28;20328;-63
2023/06/11 07:24:12;;;;;;;9.35;8.55;;;27.70;95.10;;;;;;5081354;28;20101;-63
2023/06/11 07:26:38;;;;;;;9.88;8.88;;;27.90;95.10;;;;;;5077828;28;20048;-63
2023/06/11 07:29:05;;;;;;;9.60;8.73;;;27.90;95.00;;;;;;5083947;28;20372;-63
2023/06/11 07:31:31;;;;;;;10.27;9.23;;;27.90;94.90;;;;;;5082030;28;20056;-62
2023/06/11 07:33:57;;;;;;;10.75;8.48;;;28.00;94.90;;;;;;5080606;28;20440;-64
2023/06/11 07:36:24;;;;;;;10.65;8.80;;;28.00;94.70;;;;;;5081360;28;20047;-64
2023/06/11 07:38:50;;;;;;;11.52;9.23;;;28.10;94.80;;;;;;5082246;28;20055;-63
2023/06/11 07:41:16;;;;;;;8.43;7.68;;;28.00;94.80;;;;;;5082391;28;20048;-63
2023/06/11 07:43:43;;;;;;;9.65;8.75;;;28.10;94.70;;;;;;5080879;28;20044;-63
2023/06/11 07:46:09;;;;;;;9.85;8.95;;;28.20;94.70;;;;;;5080696;28;20058;-63
2023/06/11 07:48:41;;;;;;;12.73;8.65;;;28.20;94.80;;;;;;5084005;28;20044;-63
2023/06/11 07:51:07;;;;;;;9.52;8.63;;;28.40;94.60;;;;;;5081155;28;20430;-62
2023/06/11 07:53:37;;;;;;;10.05;8.23;;;28.20;94.40;;;;;;5080371;28;20044;-63
2023/06/11 07:56:03;;;;;;;9.20;8.40;;;28.40;94.50;;;;;;5080310;28;20048;-63
2023/06/11 07:58:29;;;;;;;9.75;8.82;;;28.50;94.40;;;;;;5095533;28;20353;-63
2023/06/11 08:00:55;;;;;;;9.25;8.45;;;28.40;94.40;;;;;;5095720;28;20464;-63
2023/06/11 08:03:22;;;;;;;10.05;8.93;;;28.50;94.40;;;;;;5095670;28;20055;-63
2023/06/11 08:05:48;;;;;;;9.48;8.60;;;28.60;94.40;;;;;;5095129;28;20398;-63
2023/06/11 08:08:14;;;;;;;11.00;8.38;;;28.80;94.40;;;;;;5095574;28;20044;-63
2023/06/11 08:10:41;;;;;;;10.10;8.95;;;28.70;94.30;;;;;;5095525;28;20043;-64
2023/06/11 08:13:07;;;;;;;9.25;8.15;;;28.90;94.40;;;;;;5095108;28;20540;-63
2023/06/11 08:15:34;;;;;;;9.05;8.15;;;28.90;94.50;;;;;;5095259;28;20346;-64
2023/06/11 08:18:00;;;;;;;9.00;8.10;;;28.80;94.20;;;;;;5095449;28;20345;-64
2023/06/11 08:20:26;;;;;;;10.85;8.75;;;28.90;94.30;;;;;;5095039;28;20090;-64
2023/06/11 08:22:53;;;;;;;9.38;8.10;;;28.90;94.30;;;;;;5095124;28;20406;-64
2023/06/11 08:25:19;;;;;;;9.30;8.48;;;29.00;94.10;;;;;;5094933;28;20341;-65
2023/06/11 08:27:46;;;;;;;10.32;8.45;;;29.00;94.10;;;;;;5095367;28;20067;-64
2023/06/11 08:30:12;;;;;;;8.93;8.13;;;29.10;94.30;;;;;;5095148;28;20048;-64
2023/06/11 08:32:39;;;;;;;9.57;8.68;;;29.10;94.20;;;;;;5095140;28;20130;-64
2023/06/11 08:35:05;;;;;;;8.98;7.95;;;29.00;94.20;;;;;;5091481;28;20114;-65
2023/06/11 08:37:32;;;;;;;8.98;8.05;;;29.10;94.00;;;;;;5086235;28;20048;-64
2023/06/11 08:39:58;;;;;;;9.73;8.70;;;29.20;94.00;;;;;;5083545;28;20060;-65
2023/06/11 08:42:24;;;;;;;8.43;7.70;;;29.20;93.90;;;;;;5083640;28;20036;-64
2023/06/11 08:44:51;;;;;;;10.00;7.97;;;29.20;94.00;;;;;;5083186;28;20041;-64
2023/06/11 08:47:19;;;;;;;9.63;8.25;;;29.30;94.10;;;;;;5084792;28;20052;-65
2023/06/11 08:49:46;;;;;;;9.73;8.77;;;29.40;94.10;;;;;;5085437;28;20066;-65
2023/06/11 08:52:13;;;;;;;10.13;8.80;;;29.40;93.90;;;;;;5095279;28;20044;-65
2023/06/11 08:54:40;;;;;;;10.43;9.32;;;29.30;93.80;;;;;;5094266;28;20044;-65
2023/06/11 08:57:07;;;;;;;17.75;12.57;;;29.30;93.90;;;;;;5094579;28;20415;-65
2023/06/11 08:59:33;;;;;;;10.45;9.18;;;29.30;93.90;;;;;;5088182;28;20060;-65
2023/06/11 09:02:00;;;;;;;16.58;12.00;;;29.40;94.00;;;;;;5083490;28;20059;-64
2023/06/11 09:04:27;;;;;;;11.15;8.80;;;29.20;93.90;;;;;;5081672;28;20358;-65
2023/06/11 09:07:00;;;;;;;13.02;10.48;;;29.10;94.00;;;;;;5083931;28;20047;-65
2023/06/11 09:09:27;;;;;;;12.20;10.18;;;29.40;94.10;;;;;;5090533;28;20116;-65
2023/06/11 09:11:53;;;;;;;9.20;8.35;;;29.40;93.90;;;;;;5094486;28;20051;-65
2023/06/11 09:14:20;;;;;;;8.55;7.75;;;29.50;93.90;;;;;;5094099;28;20055;-64
2023/06/11 09:16:48;;;;;;;11.50;7.63;;;29.60;93.80;;;;;;5094729;28;20048;-66
2023/06/11 09:19:18;;;;;;;9.50;8.35;;;29.60;93.80;;;;;;5093399;28;20529;-66
2023/06/11 09:21:53;;;;;;;10.60;9.32;;;29.70;93.70;;;;;;5083737;28;20094;-65
2023/06/11 09:24:20;;;;;;;8.10;7.38;;;29.70;93.10;;;;;;5081386;28;20047;-64
2023/06/11 09:26:52;;;;;;;8.35;7.55;;;29.80;93.40;;;;;;5074162;28;20044;-64
2023/06/11 09:29:18;;;;;;;8.90;8.07;;;29.80;93.50;;;;;;5088965;28;20055;-63
2023/06/11 09:31:45;;;;;;;12.48;10.15;;;29.80;93.40;;;;;;5094339;28;20109;-65
2023/06/11 09:34:16;;;;;;;9.95;8.43;;;29.80;93.40;;;;;;5093732;28;20052;-65
2023/06/11 09:36:46;;;;;;;9.38;8.40;;;29.90;93.40;;;;;;5093461;28;20371;-65
2023/06/11 09:39:15;;;;;;;11.35;9.15;;;30.00;93.00;;;;;;5093499;28;20121;-65
2023/06/11 09:41:51;;;;;;;9.07;7.57;;;30.20;93.30;;;;;;5074893;28;20373;-64
2023/06/11 09:44:19;;;;;;;10.48;8.68;;;30.10;92.60;;;;;;5074502;28;20049;-64
2023/06/11 09:46:47;;;;;;;9.63;8.07;;;30.20;93.00;;;;;;5077484;28;20113;-64
2023/06/11 09:49:15;;;;;;;9.45;8.55;;;30.10;92.90;;;;;;5088456;28;20429;-64
2023/06/11 09:51:42;;;;;;;8.40;7.63;;;30.10;92.80;;;;;;5093658;28;20051;-64
2023/06/11 09:54:10;;;;;;;8.90;8.00;;;30.00;92.70;;;;;;5093253;28;20067;-64
2023/06/11 09:56:38;;;;;;;8.73;7.93;;;30.20;92.70;;;;;;5093385;28;20601;-65
2023/06/11 09:59:05;;;;;;;8.70;7.90;;;30.30;92.70;;;;;;5093409;28;20055;-64
2023/06/11 10:01:33;;;;;;;7.65;6.95;;;30.20;92.60;;;;;;5093484;28;20044;-63
2023/06/11 10:04:00;;;;;;;7.63;6.93;;;30.40;92.90;;;;;;5092821;28;20413;-65
2023/06/11 10:06:33;;;;;;;8.10;7.40;;;30.50;92.40;;;;;;5093363;28;20044;-64
2023/06/11 10:09:04;;;;;;;8.27;7.47;;;30.60;92.10;;;;;;5093189;28;20056;-64
2023/06/11 10:11:38;;;;;;;8.07;7.10;;;30.60;92.20;;;;;;5088891;28;20047;-64
2023/06/11 10:14:09;;;;;;;8.50;7.65;;;30.70;91.90;;;;;;5083539;28;20056;-64
2023/06/11 10:16:36;;;;;;;7.32;6.63;;;30.80;92.10;;;;;;5083150;28;20125;-64
2023/06/11 10:19:07;;;;;;;8.10;6.82;;;30.90;91.90;;;;;;5083187;28;20052;-65
2023/06/11 10:21:49;;;;;;;7.97;7.18;;;31.00;91.80;;;;;;5082640;28;20048;-65
2023/06/11 10:24:26;;;;;;;7.45;6.75;;;31.00;91.30;;;;;;5082680;28;20044;-66
2023/06/11 10:27:12;;;;;;;8.77;7.70;;;30.90;91.30;;;;;;5082268;28;20415;-66
2023/06/11 10:29:41;;;;;;;7.60;6.90;;;31.00;91.10;;;;;;5083220;28;20056;-65
2023/06/11 10:32:14;;;;;;;8.25;6.80;;;30.90;91.40;;;;;;5083866;28;20048;-65
2023/06/11 10:34:41;;;;;;;8.00;7.00;;;31.00;90.90;;;;;;5082689;28;20063;-64
2023/06/11 10:37:08;;;;;;;7.65;6.85;;;31.20;91.10;;;;;;5082150;28;20051;-65
2023/06/11 10:39:34;;;;;;;8.02;6.40;;;31.10;90.40;;;;;;5077325;28;20376;-64
2023/06/11 10:42:02;;;;;;;10.85;7.88;;;31.10;90.40;;;;;;5072225;28;20457;-64
2023/06/11 10:44:29;;;;;;;9.45;8.27;;;31.10;90.00;;;;;;5072130;28;20048;-65
2023/06/11 10:46:59;;;;;;;7.03;6.32;;;31.30;90.30;;;;;;5072532;28;20044;-64
2023/06/11 10:49:26;;;;;;;7.20;6.50;;;31.20;89.50;;;;;;5087902;28;20414;-65
2023/06/11 10:51:53;;;;;;;6.72;6.18;;;31.20;88.40;;;;;;5088932;28;20048;-64
2023/06/11 10:54:27;;;;;;;7.07;6.38;;;31.10;88.00;;;;;;5080586;28;20055;-65
2023/06/11 10:56:54;;;;;;;7.75;6.25;;;31.20;88.60;;;;;;5081041;28;20421;-63
2023/06/11 10:59:20;;;;;;;6.85;5.95;;;31.30;89.00;;;;;;5087101;28;20052;-65
2023/06/11 11:01:47;;;;;;;7.43;6.72;;;31.40;88.40;;;;;;5092400;28;20109;-64
2023/06/11 11:04:13;;;;;;;6.80;6.10;;;31.20;87.80;;;;;;5091078;28;20055;-63
2023/06/11 11:06:39;;;;;;;10.50;6.88;;;31.30;87.80;;;;;;5092241;28;20044;-62
2023/06/11 11:09:05;;;;;;;6.85;6.18;;;31.20;87.00;;;;;;5091702;28;20075;-63
2023/06/11 11:11:33;;;;;;;7.13;6.53;;;31.40;88.30;;;;;;5092049;28;20051;-63
2023/06/11 11:13:59;;;;;;;7.22;6.13;;;31.50;87.40;;;;;;5087634;28;20048;-63
2023/06/11 11:16:26;;;;;;;6.75;6.15;;;31.60;87.00;;;;;;5082379;28;20451;-62
2023/06/11 11:18:52;;;;;;;7.35;5.70;;;31.50;86.20;;;;;;5081271;28;20052;-64
2023/06/11 11:21:26;;;;;;;6.15;5.10;;;31.50;84.40;;;;;;5080128;28;20041;-63
2023/06/11 11:23:52;;;;;;;6.82;6.22;;;31.30;84.60;;;;;;5079251;28;20075;-63
2023/06/11 11:26:19;;;;;;;6.32;5.65;;;31.50;84.60;;;;;;5081610;28;20051;-63
2023/06/11 11:28:45;;;;;;;6.70;5.95;;;31.60;85.00;;;;;;5079462;28;20471;-63
2023/06/11 11:31:15;;;;;;;6.97;5.53;;;31.70;84.50;;;;;;5071040;28;20059;-63
2023/06/11 11:33:41;;;;;;;6.47;5.88;;;31.70;83.90;;;;;;5071617;28;20452;-62
2023/06/11 11:36:11;;;;;;;5.95;5.35;;;31.60;82.20;;;;;;5071411;28;20350;-62
2023/06/11 11:38:38;;;;;;;6.85;6.18;;;31.60;83.20;;;;;;5080291;28;20055;-62
2023/06/11 11:41:11;;;;;;;6.20;5.60;;;31.70;83.50;;;;;;5091759;28;20466;-62
2023/06/11 11:43:42;;;;;;;8.63;6.13;;;31.90;83.50;;;;;;5091457;28;20426;-63
2023/06/11 11:46:19;;;;;;;6.70;6.10;;;31.80;81.90;;;;;;5091991;28;20040;-62
2023/06/11 11:48:46;;;;;;;6.70;6.00;;;31.80;81.60;;;;;;5091641;28;20448;-63
2023/06/11 11:51:15;;;;;;;7.40;6.03;;;31.70;81.20;;;;;;5091778;28;20274;-63
2023/06/11 11:53:42;;;;;;;8.57;6.00;;;31.80;81.40;;;;;;5070879;28;20098;-63
2023/06/11 11:56:08;;;;;;;7.05;6.35;;;32.00;81.10;;;;;;5070197;28;20044;-64
2023/06/11 11:58:39;;;;;;;7.32;6.07;;;31.80;80.90;;;;;;5077480;28;20427;-63
2023/06/11 12:01:09;;;;;;;6.55;5.75;;;31.80;80.80;;;;;;5089450;28;20375;-62
2023/06/11 12:03:39;;;;;;;7.53;5.53;;;31.80;80.50;;;;;;5089217;28;20491;-63
2023/06/11 12:06:07;;;;;;;6.85;5.68;;;31.90;78.50;;;;;;5089368;28;20450;-62
2023/06/11 12:08:35;;;;;;;6.68;5.30;;;31.90;79.00;;;;;;5089365;28;20426;-63
2023/06/11 12:11:06;;;;;;;6.53;5.60;;;32.20;78.00;;;;;;5090478;28;20040;-63
2023/06/11 12:13:33;;;;;;;7.75;5.47;;;32.10;77.90;;;;;;5091265;28;20058;-64
2023/06/11 12:15:59;;;;;;;7.03;6.32;;;32.20;77.80;;;;;;5091434;28;20305;-64
2023/06/11 12:18:26;;;;;;;6.60;5.25;;;32.20;77.40;;;;;;5091134;28;20040;-64
2023/06/11 12:20:53;;;;;;;8.43;6.05;;;32.10;76.80;;;;;;5091035;28;20059;-63
2023/06/11 12:23:19;;;;;;;8.13;5.60;;;32.00;77.30;;;;;;5091160;28;20400;-63
2023/06/11 12:25:47;;;;;;;7.97;6.10;;;32.00;77.50;;;;;;5091245;28;20052;-65
2023/06/11 12:28:13;;;;;;;6.32;5.65;;;32.10;78.00;;;;;;5091578;28;20039;-63
2023/06/11 12:30:40;;;;;;;6.38;5.75;;;32.20;78.50;;;;;;5091016;28;20063;-64
2023/06/11 12:33:07;;;;;;;9.15;5.70;;;32.30;78.10;;;;;;5091278;28;20155;-64
2023/06/11 12:35:33;;;;;;;6.53;5.93;;;32.40;78.20;;;;;;5090849;28;20052;-63
2023/06/11 12:38:00;;;;;;;8.55;6.38;;;32.40;77.60;;;;;;5090769;28;20111;-63
2023/06/11 12:40:28;;;;;;;6.55;5.95;;;32.60;77.70;;;;;;5091364;28;20052;-63